Presidente Castelo Branco, Brazil
Current Conditions -  °F | °C
As of 7:00 PM on Tuesday 25 Nov 2014 (Local Time) from SBMG Reporting Station
Light Rain Light Rain  
Wind Chill: 72°   Ceiling: 1100
Heat Index: 72°   Visibility: 2.5mi
Dew Point: 70°   Wind: 12mph
Humidity: 94%   Direction: 210°SSW
Pressure: 29.83"   Gusts: NA
Location:  23.28°S, 52.15°W
Report Text: SBMG 252100Z 21010KT 4000 -RA SCT002 SCT005 OVC011 22/21 Q1010
Loading
Personal Weather Stations






























Interactive Weather Map New forecast layout! Learn more

10-Day Weather Forecast

Advertisements
Track Severe Weather on mobile